sensor_id;sensor_type;location;lat;lon;timestamp;pressure;altitude;pressure_sealevel;temperature;humidity
74594;BME280;63097;51.872;4.460;2023-02-26T00:00:12;102143.50;;;2.36;72.27
74594;BME280;63097;51.872;4.460;2023-02-26T00:02:38;102147.09;;;2.37;72.24
74594;BME280;63097;51.872;4.460;2023-02-26T00:05:04;102147.28;;;2.35;72.33
74594;BME280;63097;51.872;4.460;2023-02-26T00:07:30;102153.47;;;2.53;71.67
74594;BME280;63097;51.872;4.460;2023-02-26T00:09:55;102157.38;;;2.35;72.32
74594;BME280;63097;51.872;4.460;2023-02-26T00:12:21;102155.13;;;2.22;73.31
74594;BME280;63097;51.872;4.460;2023-02-26T00:14:47;102163.22;;;2.32;72.90
74594;BME280;63097;51.872;4.460;2023-02-26T00:19:37;102163.91;;;2.34;72.90
74594;BME280;63097;51.872;4.460;2023-02-26T00:22:03;102157.00;;;2.14;73.41
74594;BME280;63097;51.872;4.460;2023-02-26T00:24:29;102158.22;;;2.19;73.42
74594;BME280;63097;51.872;4.460;2023-02-26T00:26:54;102162.88;;;2.27;73.43
74594;BME280;63097;51.872;4.460;2023-02-26T00:29:19;102160.44;;;2.24;73.92
74594;BME280;63097;51.872;4.460;2023-02-26T00:31:45;102173.72;;;2.44;72.71
74594;BME280;63097;51.872;4.460;2023-02-26T00:34:12;102181.78;;;2.38;73.00
74594;BME280;63097;51.872;4.460;2023-02-26T00:36:46;102174.41;;;2.46;73.11
74594;BME280;63097;51.872;4.460;2023-02-26T00:39:36;102182.81;;;2.45;73.40
74594;BME280;63097;51.872;4.460;2023-02-26T00:42:05;102185.34;;;2.30;73.16
74594;BME280;63097;51.872;4.460;2023-02-26T00:44:31;102187.59;;;2.35;73.47
74594;BME280;63097;51.872;4.460;2023-02-26T00:47:08;102194.94;;;2.26;73.67
74594;BME280;63097;51.872;4.460;2023-02-26T00:52:28;102199.25;;;2.29;73.83
74594;BME280;63097;51.872;4.460;2023-02-26T00:54:56;102194.59;;;2.21;73.76
74594;BME280;63097;51.872;4.460;2023-02-26T00:57:22;102206.81;;;2.35;73.26
74594;BME280;63097;51.872;4.460;2023-02-26T00:59:47;102211.81;;;2.39;73.13
74594;BME280;63097;51.872;4.460;2023-02-26T01:02:12;102201.84;;;2.38;73.69
74594;BME280;63097;51.872;4.460;2023-02-26T01:04:38;102201.88;;;2.46;72.47
74594;BME280;63097;51.872;4.460;2023-02-26T01:07:04;102212.38;;;2.59;71.57
74594;BME280;63097;51.872;4.460;2023-02-26T01:09:32;102212.72;;;2.56;71.93
74594;BME280;63097;51.872;4.460;2023-02-26T01:12:00;102210.50;;;2.59;72.03
74594;BME280;63097;51.872;4.460;2023-02-26T01:14:27;102219.41;;;2.53;72.37
74594;BME280;63097;51.872;4.460;2023-02-26T01:16:58;102219.91;;;2.57;72.24
74594;BME280;63097;51.872;4.460;2023-02-26T01:19:36;102225.09;;;2.68;71.89
74594;BME280;63097;51.872;4.460;2023-02-26T01:22:14;102229.41;;;2.70;72.10
74594;BME280;63097;51.872;4.460;2023-02-26T01:24:44;102231.50;;;2.84;71.04
74594;BME280;63097;51.872;4.460;2023-02-26T01:27:11;102236.81;;;2.86;71.40
74594;BME280;63097;51.872;4.460;2023-02-26T01:29:37;102231.31;;;2.86;71.39
74594;BME280;63097;51.872;4.460;2023-02-26T01:32:18;102235.28;;;2.91;70.63
74594;BME280;63097;51.872;4.460;2023-02-26T01:34:54;102248.16;;;2.83;72.02
74594;BME280;63097;51.872;4.460;2023-02-26T01:37:33;102245.94;;;3.02;70.53
74594;BME280;63097;51.872;4.460;2023-02-26T01:42:31;102240.66;;;3.09;70.25
74594;BME280;63097;51.872;4.460;2023-02-26T01:45:10;102256.94;;;3.02;70.09
74594;BME280;63097;51.872;4.460;2023-02-26T01:47:44;102259.66;;;2.86;70.64
74594;BME280;63097;51.872;4.460;2023-02-26T01:50:16;102260.53;;;2.87;70.11
74594;BME280;63097;51.872;4.460;2023-02-26T01:55:17;102263.28;;;2.87;69.87
74594;BME280;63097;51.872;4.460;2023-02-26T01:57:43;102265.06;;;2.54;72.15
74594;BME280;63097;51.872;4.460;2023-02-26T02:00:10;102264.44;;;2.68;70.98
74594;BME280;63097;51.872;4.460;2023-02-26T02:02:35;102268.66;;;2.47;72.33
74594;BME280;63097;51.872;4.460;2023-02-26T02:05:08;102272.22;;;2.39;72.81
74594;BME280;63097;51.872;4.460;2023-02-26T02:07:36;102274.09;;;2.31;73.00
74594;BME280;63097;51.872;4.460;2023-02-26T02:10:01;102284.03;;;2.32;72.17
74594;BME280;63097;51.872;4.460;2023-02-26T02:12:35;102281.09;;;2.33;71.24
74594;BME280;63097;51.872;4.460;2023-02-26T02:20:56;102294.16;;;2.05;69.26
74594;BME280;63097;51.872;4.460;2023-02-26T02:23:44;102304.06;;;1.98;68.42
74594;BME280;63097;51.872;4.460;2023-02-26T02:34:40;102310.63;;;1.80;66.28
74594;BME280;63097;51.872;4.460;2023-02-26T02:37:24;102309.63;;;1.81;65.80
74594;BME280;63097;51.872;4.460;2023-02-26T02:40:03;102311.75;;;1.69;66.65
74594;BME280;63097;51.872;4.460;2023-02-26T02:42:41;102312.84;;;1.76;66.49
74594;BME280;63097;51.872;4.460;2023-02-26T02:45:14;102324.13;;;1.73;66.68
74594;BME280;63097;51.872;4.460;2023-02-26T02:47:43;102317.44;;;1.76;65.97
74594;BME280;63097;51.872;4.460;2023-02-26T02:50:25;102316.00;;;1.64;66.95
74594;BME280;63097;51.872;4.460;2023-02-26T02:52:57;102323.44;;;1.71;65.19
74594;BME280;63097;51.872;4.460;2023-02-26T02:55:32;102317.72;;;1.65;65.39
74594;BME280;63097;51.872;4.460;2023-02-26T02:58:04;102323.94;;;1.49;65.10
74594;BME280;63097;51.872;4.460;2023-02-26T03:00:33;102325.88;;;1.57;65.04
74594;BME280;63097;51.872;4.460;2023-02-26T03:03:23;102322.59;;;1.53;64.80
74594;BME280;63097;51.872;4.460;2023-02-26T03:05:50;102331.94;;;1.43;64.42
74594;BME280;63097;51.872;4.460;2023-02-26T03:08:18;102330.38;;;1.40;65.38
74594;BME280;63097;51.872;4.460;2023-02-26T03:10:45;102335.38;;;1.27;65.38
74594;BME280;63097;51.872;4.460;2023-02-26T03:13:23;102333.72;;;1.34;65.74
74594;BME280;63097;51.872;4.460;2023-02-26T03:16:02;102329.81;;;1.37;65.09
74594;BME280;63097;51.872;4.460;2023-02-26T03:24:08;102344.63;;;1.26;65.95
74594;BME280;63097;51.872;4.460;2023-02-26T03:26:39;102344.22;;;1.21;65.84
74594;BME280;63097;51.872;4.460;2023-02-26T03:32:14;102347.81;;;1.22;65.76
74594;BME280;63097;51.872;4.460;2023-02-26T03:34:49;102340.63;;;1.21;66.65
74594;BME280;63097;51.872;4.460;2023-02-26T03:40:21;102355.88;;;1.23;66.00
74594;BME280;63097;51.872;4.460;2023-02-26T03:42:59;102357.84;;;1.31;66.12
74594;BME280;63097;51.872;4.460;2023-02-26T03:45:30;102353.06;;;1.33;66.21
74594;BME280;63097;51.872;4.460;2023-02-26T03:47:59;102361.28;;;1.33;66.10
74594;BME280;63097;51.872;4.460;2023-02-26T03:50:46;102363.28;;;1.23;67.22
74594;BME280;63097;51.872;4.460;2023-02-26T03:53:15;102362.78;;;1.27;66.83
74594;BME280;63097;51.872;4.460;2023-02-26T03:56:12;102377.97;;;1.22;66.63
74594;BME280;63097;51.872;4.460;2023-02-26T03:58:39;102364.97;;;1.06;67.61
74594;BME280;63097;51.872;4.460;2023-02-26T04:01:08;102376.31;;;1.11;67.65
74594;BME280;63097;51.872;4.460;2023-02-26T04:03:40;102386.50;;;1.19;67.65
74594;BME280;63097;51.872;4.460;2023-02-26T04:06:08;102387.22;;;1.38;66.26
74594;BME280;63097;51.872;4.460;2023-02-26T04:08:34;102387.06;;;1.22;66.78
74594;BME280;63097;51.872;4.460;2023-02-26T04:13:30;102403.97;;;1.18;67.78
74594;BME280;63097;51.872;4.460;2023-02-26T04:15:55;102385.69;;;1.09;67.59
74594;BME280;63097;51.872;4.460;2023-02-26T04:18:21;102396.16;;;0.95;68.46
74594;BME280;63097;51.872;4.460;2023-02-26T04:20:46;102400.03;;;1.02;68.42
74594;BME280;63097;51.872;4.460;2023-02-26T04:23:12;102398.81;;;0.87;69.86
74594;BME280;63097;51.872;4.460;2023-02-26T04:25:37;102415.66;;;0.65;70.49
74594;BME280;63097;51.872;4.460;2023-02-26T04:28:02;102400.31;;;0.72;69.67
74594;BME280;63097;51.872;4.460;2023-02-26T04:30:28;102407.06;;;0.78;69.79
74594;BME280;63097;51.872;4.460;2023-02-26T04:32:53;102411.31;;;0.90;69.61
74594;BME280;63097;51.872;4.460;2023-02-26T04:35:18;102418.47;;;0.73;70.25
74594;BME280;63097;51.872;4.460;2023-02-26T04:37:43;102421.28;;;0.64;70.25
74594;BME280;63097;51.872;4.460;2023-02-26T04:40:09;102420.44;;;0.54;71.67
74594;BME280;63097;51.872;4.460;2023-02-26T04:42:35;102425.81;;;0.46;71.94
74594;BME280;63097;51.872;4.460;2023-02-26T04:45:00;102438.78;;;0.44;72.64
74594;BME280;63097;51.872;4.460;2023-02-26T04:47:26;102438.22;;;0.31;72.47
74594;BME280;63097;51.872;4.460;2023-02-26T04:49:51;102446.09;;;0.53;70.97
74594;BME280;63097;51.872;4.460;2023-02-26T04:52:16;102437.00;;;0.62;71.34
74594;BME280;63097;51.872;4.460;2023-02-26T04:54:42;102433.25;;;0.53;70.56
74594;BME280;63097;51.872;4.460;2023-02-26T04:57:07;102433.88;;;0.47;71.48
74594;BME280;63097;51.872;4.460;2023-02-26T04:59:32;102431.78;;;0.59;70.38
74594;BME280;63097;51.872;4.460;2023-02-26T05:01:58;102443.75;;;0.58;71.26
74594;BME280;63097;51.872;4.460;2023-02-26T05:04:23;102445.22;;;0.52;71.27
74594;BME280;63097;51.872;4.460;2023-02-26T05:06:48;102453.69;;;0.59;70.76
74594;BME280;63097;51.872;4.460;2023-02-26T05:09:14;102457.88;;;0.63;71.07
74594;BME280;63097;51.872;4.460;2023-02-26T05:11:39;102449.16;;;0.40;71.58
74594;BME280;63097;51.872;4.460;2023-02-26T05:14:04;102453.31;;;0.44;72.06
74594;BME280;63097;51.872;4.460;2023-02-26T05:16:30;102455.06;;;0.36;71.71
74594;BME280;63097;51.872;4.460;2023-02-26T05:18:55;102454.25;;;0.26;72.44
74594;BME280;63097;51.872;4.460;2023-02-26T05:21:20;102469.47;;;0.28;72.18
74594;BME280;63097;51.872;4.460;2023-02-26T05:23:46;102463.44;;;0.25;72.11
74594;BME280;63097;51.872;4.460;2023-02-26T05:26:11;102457.81;;;0.17;72.37
74594;BME280;63097;51.872;4.460;2023-02-26T05:28:36;102470.50;;;0.27;72.20
74594;BME280;63097;51.872;4.460;2023-02-26T05:31:02;102469.31;;;0.30;71.53
74594;BME280;63097;51.872;4.460;2023-02-26T05:33:27;102472.63;;;0.43;70.18
74594;BME280;63097;51.872;4.460;2023-02-26T05:35:52;102486.19;;;0.35;71.55
74594;BME280;63097;51.872;4.460;2023-02-26T05:38:18;102480.59;;;0.27;71.10
74594;BME280;63097;51.872;4.460;2023-02-26T05:40:43;102485.91;;;0.28;71.62
74594;BME280;63097;51.872;4.460;2023-02-26T05:43:09;102486.47;;;0.22;71.83
74594;BME280;63097;51.872;4.460;2023-02-26T05:45:34;102490.81;;;0.15;71.59
74594;BME280;63097;51.872;4.460;2023-02-26T05:48:00;102500.75;;;0.16;71.64
74594;BME280;63097;51.872;4.460;2023-02-26T05:50:25;102499.88;;;0.06;71.68
74594;BME280;63097;51.872;4.460;2023-02-26T05:52:50;102507.94;;;0.08;71.83
74594;BME280;63097;51.872;4.460;2023-02-26T05:55:16;102509.69;;;-0.01;72.34
74594;BME280;63097;51.872;4.460;2023-02-26T05:57:41;102519.47;;;0.11;72.07
74594;BME280;63097;51.872;4.460;2023-02-26T06:00:08;102519.50;;;0.02;72.11
74594;BME280;63097;51.872;4.460;2023-02-26T06:02:33;102516.16;;;0.08;71.42
74594;BME280;63097;51.872;4.460;2023-02-26T06:04:59;102527.97;;;-0.02;72.01
74594;BME280;63097;51.872;4.460;2023-02-26T06:07:24;102522.81;;;0.05;71.63
74594;BME280;63097;51.872;4.460;2023-02-26T06:09:49;102521.50;;;-0.10;71.36
74594;BME280;63097;51.872;4.460;2023-02-26T06:12:15;102519.34;;;-0.07;71.12
74594;BME280;63097;51.872;4.460;2023-02-26T06:14:40;102534.75;;;-0.15;71.70
74594;BME280;63097;51.872;4.460;2023-02-26T06:17:06;102535.03;;;-0.09;71.88
74594;BME280;63097;51.872;4.460;2023-02-26T06:19:31;102543.22;;;-0.09;71.59
74594;BME280;63097;51.872;4.460;2023-02-26T06:21:57;102537.44;;;-0.25;71.99
74594;BME280;63097;51.872;4.460;2023-02-26T06:24:22;102541.91;;;-0.33;72.22
74594;BME280;63097;51.872;4.460;2023-02-26T06:26:47;102541.75;;;-0.32;72.20
74594;BME280;63097;51.872;4.460;2023-02-26T06:29:14;102540.16;;;-0.34;71.94
74594;BME280;63097;51.872;4.460;2023-02-26T06:31:39;102542.75;;;-0.42;72.74
74594;BME280;63097;51.872;4.460;2023-02-26T06:34:05;102548.59;;;-0.56;73.07
74594;BME280;63097;51.872;4.460;2023-02-26T06:36:30;102549.66;;;-0.38;72.38
74594;BME280;63097;51.872;4.460;2023-02-26T06:38:55;102563.78;;;-0.33;71.76
74594;BME280;63097;51.872;4.460;2023-02-26T06:41:21;102559.75;;;-0.20;70.58
74594;BME280;63097;51.872;4.460;2023-02-26T06:43:46;102567.69;;;-0.07;70.22
74594;BME280;63097;51.872;4.460;2023-02-26T06:46:11;102569.41;;;-0.16;70.41
74594;BME280;63097;51.872;4.460;2023-02-26T06:48:37;102579.59;;;-0.27;71.40
74594;BME280;63097;51.872;4.460;2023-02-26T06:51:02;102582.91;;;-0.24;71.11
74594;BME280;63097;51.872;4.460;2023-02-26T06:53:28;102588.00;;;-0.10;70.07
74594;BME280;63097;51.872;4.460;2023-02-26T06:55:53;102591.31;;;-0.06;69.96
74594;BME280;63097;51.872;4.460;2023-02-26T06:58:19;102597.63;;;-0.15;70.59
74594;BME280;63097;51.872;4.460;2023-02-26T07:00:44;102599.81;;;0.00;69.64
74594;BME280;63097;51.872;4.460;2023-02-26T07:03:14;102607.31;;;0.08;69.03
74594;BME280;63097;51.872;4.460;2023-02-26T07:05:40;102612.34;;;0.03;69.67
74594;BME280;63097;51.872;4.460;2023-02-26T07:08:06;102615.53;;;0.08;68.46
74594;BME280;63097;51.872;4.460;2023-02-26T07:10:32;102624.44;;;0.10;68.77
74594;BME280;63097;51.872;4.460;2023-02-26T07:12:58;102625.59;;;0.08;69.15
74594;BME280;63097;51.872;4.460;2023-02-26T07:15:23;102629.66;;;0.23;67.55
74594;BME280;63097;51.872;4.460;2023-02-26T07:17:49;102639.31;;;0.27;67.21
74594;BME280;63097;51.872;4.460;2023-02-26T07:20:14;102632.94;;;0.17;68.11
74594;BME280;63097;51.872;4.460;2023-02-26T07:22:40;102640.44;;;0.24;67.74
74594;BME280;63097;51.872;4.460;2023-02-26T07:25:06;102631.81;;;0.29;68.39
74594;BME280;63097;51.872;4.460;2023-02-26T07:27:32;102645.63;;;0.37;67.63
74594;BME280;63097;51.872;4.460;2023-02-26T07:29:59;102649.69;;;0.52;66.98
74594;BME280;63097;51.872;4.460;2023-02-26T07:32:24;102648.66;;;0.62;66.10
74594;BME280;63097;51.872;4.460;2023-02-26T07:34:50;102659.78;;;0.80;65.94
74594;BME280;63097;51.872;4.460;2023-02-26T07:37:15;102665.25;;;0.80;66.61
74594;BME280;63097;51.872;4.460;2023-02-26T07:39:41;102662.22;;;0.92;65.88
74594;BME280;63097;51.872;4.460;2023-02-26T07:42:06;102670.84;;;1.07;66.07
74594;BME280;63097;51.872;4.460;2023-02-26T07:44:31;102676.31;;;1.17;63.99
74594;BME280;63097;51.872;4.460;2023-02-26T07:46:57;102673.78;;;1.42;64.72
74594;BME280;63097;51.872;4.460;2023-02-26T07:49:22;102676.97;;;1.38;63.81
74594;BME280;63097;51.872;4.460;2023-02-26T07:51:47;102671.03;;;1.52;64.36
74594;BME280;63097;51.872;4.460;2023-02-26T07:54:13;102675.25;;;1.73;63.82
74594;BME280;63097;51.872;4.460;2023-02-26T07:56:39;102666.16;;;1.73;61.11
74594;BME280;63097;51.872;4.460;2023-02-26T07:59:04;102672.13;;;1.95;61.46
74594;BME280;63097;51.872;4.460;2023-02-26T08:01:30;102668.50;;;1.95;61.30
74594;BME280;63097;51.872;4.460;2023-02-26T08:03:55;102676.56;;;1.96;60.63
74594;BME280;63097;51.872;4.460;2023-02-26T08:06:20;102684.72;;;2.16;61.95
74594;BME280;63097;51.872;4.460;2023-02-26T08:08:46;102683.84;;;2.15;59.91
74594;BME280;63097;51.872;4.460;2023-02-26T08:11:11;102693.19;;;1.95;59.73
74594;BME280;63097;51.872;4.460;2023-02-26T08:13:37;102680.16;;;2.24;57.85
74594;BME280;63097;51.872;4.460;2023-02-26T08:16:02;102674.44;;;2.18;59.02
74594;BME280;63097;51.872;4.460;2023-02-26T08:18:27;102677.59;;;2.23;58.16
74594;BME280;63097;51.872;4.460;2023-02-26T08:20:53;102693.81;;;2.16;58.37
74594;BME280;63097;51.872;4.460;2023-02-26T08:23:18;102705.59;;;1.99;58.82
74594;BME280;63097;51.872;4.460;2023-02-26T08:25:44;102706.31;;;2.01;59.40
74594;BME280;63097;51.872;4.460;2023-02-26T08:28:09;102703.81;;;2.08;58.60
74594;BME280;63097;51.872;4.460;2023-02-26T08:30:34;102703.22;;;2.14;58.13
74594;BME280;63097;51.872;4.460;2023-02-26T08:33:00;102712.00;;;2.17;58.02
74594;BME280;63097;51.872;4.460;2023-02-26T08:35:25;102714.16;;;2.23;58.27
74594;BME280;63097;51.872;4.460;2023-02-26T08:37:50;102716.34;;;2.20;59.02
74594;BME280;63097;51.872;4.460;2023-02-26T08:40:16;102711.59;;;2.39;57.17
74594;BME280;63097;51.872;4.460;2023-02-26T08:42:41;102722.19;;;2.34;57.45
74594;BME280;63097;51.872;4.460;2023-02-26T08:45:07;102731.38;;;2.43;57.33
74594;BME280;63097;51.872;4.460;2023-02-26T08:47:33;102739.97;;;2.30;57.77
74594;BME280;63097;51.872;4.460;2023-02-26T08:49:58;102732.25;;;2.61;57.06
74594;BME280;63097;51.872;4.460;2023-02-26T08:52:23;102750.38;;;2.71;56.83
74594;BME280;63097;51.872;4.460;2023-02-26T08:54:49;102752.13;;;2.72;56.45
74594;BME280;63097;51.872;4.460;2023-02-26T08:57:14;102763.19;;;2.80;57.01
74594;BME280;63097;51.872;4.460;2023-02-26T08:59:39;102754.03;;;3.07;55.43
74594;BME280;63097;51.872;4.460;2023-02-26T09:02:05;102762.97;;;2.91;56.42
74594;BME280;63097;51.872;4.460;2023-02-26T09:04:30;102759.19;;;3.10;56.79
74594;BME280;63097;51.872;4.460;2023-02-26T09:06:55;102761.78;;;3.29;55.36
74594;BME280;63097;51.872;4.460;2023-02-26T09:09:21;102767.22;;;3.39;55.34
74594;BME280;63097;51.872;4.460;2023-02-26T09:11:46;102777.19;;;3.65;53.75
74594;BME280;63097;51.872;4.460;2023-02-26T09:14:12;102769.56;;;3.77;53.87
74594;BME280;63097;51.872;4.460;2023-02-26T09:16:37;102772.56;;;3.66;54.01
74594;BME280;63097;51.872;4.460;2023-02-26T09:19:04;102769.41;;;4.12;54.51
74594;BME280;63097;51.872;4.460;2023-02-26T09:21:30;102780.97;;;4.16;53.96
74594;BME280;63097;51.872;4.460;2023-02-26T09:23:55;102783.69;;;4.49;53.66
74594;BME280;63097;51.872;4.460;2023-02-26T09:26:20;102786.59;;;4.81;52.64
74594;BME280;63097;51.872;4.460;2023-02-26T09:28:46;102790.13;;;4.58;51.56
74594;BME280;63097;51.872;4.460;2023-02-26T09:31:11;102775.47;;;4.65;50.35
74594;BME280;63097;51.872;4.460;2023-02-26T09:33:36;102781.00;;;4.65;50.59
74594;BME280;63097;51.872;4.460;2023-02-26T09:36:02;102796.19;;;4.69;50.01
74594;BME280;63097;51.872;4.460;2023-02-26T09:38:28;102796.53;;;4.66;50.96
74594;BME280;63097;51.872;4.460;2023-02-26T09:40:57;102798.84;;;4.95;49.49
74594;BME280;63097;51.872;4.460;2023-02-26T09:46:28;102813.16;;;4.98;48.96
74594;BME280;63097;51.872;4.460;2023-02-26T09:49:19;102816.09;;;4.97;48.54
74594;BME280;63097;51.872;4.460;2023-02-26T09:51:50;102818.66;;;4.90;50.07
74594;BME280;63097;51.872;4.460;2023-02-26T09:54:21;102812.16;;;5.16;47.35
74594;BME280;63097;51.872;4.460;2023-02-26T09:56:48;102826.63;;;5.01;46.63
74594;BME280;63097;51.872;4.460;2023-02-26T09:59:14;102819.44;;;5.33;46.75
74594;BME280;63097;51.872;4.460;2023-02-26T10:02:32;102819.09;;;5.60;46.53
74594;BME280;63097;51.872;4.460;2023-02-26T10:07:56;102834.44;;;5.38;44.94
74594;BME280;63097;51.872;4.460;2023-02-26T10:16:04;102844.84;;;6.00;44.76
74594;BME280;63097;51.872;4.460;2023-02-26T10:18:36;102846.91;;;5.90;44.50
74594;BME280;63097;51.872;4.460;2023-02-26T10:21:09;102859.84;;;5.66;45.23
74594;BME280;63097;51.872;4.460;2023-02-26T10:23:56;102849.97;;;5.79;44.83
74594;BME280;63097;51.872;4.460;2023-02-26T10:26:35;102851.84;;;6.19;44.68
74594;BME280;63097;51.872;4.460;2023-02-26T10:32:27;102856.59;;;6.65;44.47
74594;BME280;63097;51.872;4.460;2023-02-26T10:35:04;102857.53;;;6.42;44.65
74594;BME280;63097;51.872;4.460;2023-02-26T10:37:56;102855.16;;;6.77;43.57
74594;BME280;63097;51.872;4.460;2023-02-26T10:42:58;102861.91;;;7.36;41.86
74594;BME280;63097;51.872;4.460;2023-02-26T10:51:07;102860.28;;;7.50;40.88
74594;BME280;63097;51.872;4.460;2023-02-26T10:53:34;102868.50;;;7.35;42.06
74594;BME280;63097;51.872;4.460;2023-02-26T10:56:24;102857.63;;;8.16;39.59
74594;BME280;63097;51.872;4.460;2023-02-26T10:58:51;102856.28;;;8.64;39.08
74594;BME280;63097;51.872;4.460;2023-02-26T11:01:19;102863.06;;;8.90;37.92
74594;BME280;63097;51.872;4.460;2023-02-26T11:03:49;102861.38;;;8.60;39.18
74594;BME280;63097;51.872;4.460;2023-02-26T11:06:21;102867.47;;;9.35;38.14
74594;BME280;63097;51.872;4.460;2023-02-26T11:08:51;102864.41;;;9.45;38.05
74594;BME280;63097;51.872;4.460;2023-02-26T11:11:44;102865.28;;;9.31;38.48
74594;BME280;63097;51.872;4.460;2023-02-26T11:14:10;102864.75;;;9.42;37.60
74594;BME280;63097;51.872;4.460;2023-02-26T11:16:42;102872.09;;;8.26;39.38
74594;BME280;63097;51.872;4.460;2023-02-26T11:19:12;102876.28;;;8.07;40.68
74594;BME280;63097;51.872;4.460;2023-02-26T11:21:40;102871.28;;;8.03;39.42
74594;BME280;63097;51.872;4.460;2023-02-26T11:24:16;102876.59;;;7.45;41.34
74594;BME280;63097;51.872;4.460;2023-02-26T11:26:46;102882.09;;;6.83;43.25
74594;BME280;63097;51.872;4.460;2023-02-26T11:29:18;102875.44;;;6.54;44.39
74594;BME280;63097;51.872;4.460;2023-02-26T11:31:47;102866.69;;;6.89;43.25
74594;BME280;63097;51.872;4.460;2023-02-26T11:34:12;102867.72;;;6.88;43.08
74594;BME280;63097;51.872;4.460;2023-02-26T11:36:40;102861.84;;;7.89;41.32
74594;BME280;63097;51.872;4.460;2023-02-26T11:39:14;102871.97;;;6.68;43.70
74594;BME280;63097;51.872;4.460;2023-02-26T11:41:41;102864.34;;;5.91;45.40
74594;BME280;63097;51.872;4.460;2023-02-26T11:44:13;102858.72;;;6.47;44.70
74594;BME280;63097;51.872;4.460;2023-02-26T11:46:44;102883.00;;;5.89;46.86
74594;BME280;63097;51.872;4.460;2023-02-26T11:49:12;102864.50;;;6.76;44.30
74594;BME280;63097;51.872;4.460;2023-02-26T11:51:42;102852.50;;;6.45;44.63
74594;BME280;63097;51.872;4.460;2023-02-26T11:54:22;102860.25;;;7.27;43.83
74594;BME280;63097;51.872;4.460;2023-02-26T11:56:47;102860.28;;;7.50;42.44
74594;BME280;63097;51.872;4.460;2023-02-26T11:59:21;102864.69;;;8.70;39.40
74594;BME280;63097;51.872;4.460;2023-02-26T12:01:47;102864.19;;;9.67;39.25
74594;BME280;63097;51.872;4.460;2023-02-26T12:04:17;102857.81;;;10.71;35.36
74594;BME280;63097;51.872;4.460;2023-02-26T12:06:45;102861.31;;;10.52;35.90
74594;BME280;63097;51.872;4.460;2023-02-26T12:09:12;102846.44;;;11.06;33.65
74594;BME280;63097;51.872;4.460;2023-02-26T12:18:12;102838.13;;;12.26;32.89
74594;BME280;63097;51.872;4.460;2023-02-26T12:20:57;102843.16;;;11.44;34.72
74594;BME280;63097;51.872;4.460;2023-02-26T12:23:55;102845.81;;;11.71;34.65
74594;BME280;63097;51.872;4.460;2023-02-26T12:31:55;102843.69;;;10.72;35.57
74594;BME280;63097;51.872;4.460;2023-02-26T12:40:35;102853.75;;;10.39;35.48
74594;BME280;63097;51.872;4.460;2023-02-26T12:43:18;102833.16;;;11.69;33.50
74594;BME280;63097;51.872;4.460;2023-02-26T12:57:11;102846.84;;;11.64;33.18
74594;BME280;63097;51.872;4.460;2023-02-26T13:02:37;102848.69;;;10.49;34.85
74594;BME280;63097;51.872;4.460;2023-02-26T13:08:01;102847.38;;;10.18;36.99
74594;BME280;63097;51.872;4.460;2023-02-26T13:13:48;102831.47;;;12.13;32.31
74594;BME280;63097;51.872;4.460;2023-02-26T13:21:27;102844.53;;;12.33;32.39
74594;BME280;63097;51.872;4.460;2023-02-26T13:23:58;102841.94;;;12.51;31.52
74594;BME280;63097;51.872;4.460;2023-02-26T13:26:26;102854.59;;;11.68;33.25
74594;BME280;63097;51.872;4.460;2023-02-26T13:29:05;102841.34;;;11.90;33.76
74594;BME280;63097;51.872;4.460;2023-02-26T13:31:52;102843.47;;;11.75;34.53
74594;BME280;63097;51.872;4.460;2023-02-26T13:34:33;102854.88;;;9.96;37.65
74594;BME280;63097;51.872;4.460;2023-02-26T13:36:59;102850.84;;;9.21;40.39
74594;BME280;63097;51.872;4.460;2023-02-26T13:39:38;102845.06;;;9.37;40.11
74594;BME280;63097;51.872;4.460;2023-02-26T13:45:34;102856.13;;;10.42;39.06
74594;BME280;63097;51.872;4.460;2023-02-26T13:53:46;102860.03;;;11.29;35.58
74594;BME280;63097;51.872;4.460;2023-02-26T13:56:41;102847.84;;;13.06;33.76
74594;BME280;63097;51.872;4.460;2023-02-26T14:01:52;102846.03;;;12.48;33.98
74594;BME280;63097;51.872;4.460;2023-02-26T14:04:25;102841.00;;;12.89;32.73
74594;BME280;63097;51.872;4.460;2023-02-26T14:07:13;102837.25;;;12.45;33.64
74594;BME280;63097;51.872;4.460;2023-02-26T14:19:39;102844.44;;;10.94;37.12
74594;BME280;63097;51.872;4.460;2023-02-26T14:22:18;102846.59;;;10.58;38.46
74594;BME280;63097;51.872;4.460;2023-02-26T14:24:57;102831.88;;;12.10;35.52
74594;BME280;63097;51.872;4.460;2023-02-26T14:32:52;102842.19;;;11.77;35.32
74594;BME280;63097;51.872;4.460;2023-02-26T14:35:19;102834.88;;;13.19;32.95
74594;BME280;63097;51.872;4.460;2023-02-26T14:38:13;102840.53;;;12.99;34.31
74594;BME280;63097;51.872;4.460;2023-02-26T14:40:46;102841.66;;;11.54;36.41
74594;BME280;63097;51.872;4.460;2023-02-26T14:43:21;102854.75;;;10.32;37.87
74594;BME280;63097;51.872;4.460;2023-02-26T14:45:50;102839.00;;;10.73;37.58
74594;BME280;63097;51.872;4.460;2023-02-26T14:48:17;102836.38;;;11.05;37.18
74594;BME280;63097;51.872;4.460;2023-02-26T14:54:05;102831.91;;;12.30;35.55
74594;BME280;63097;51.872;4.460;2023-02-26T15:17:46;102834.09;;;11.22;36.38
74594;BME280;63097;51.872;4.460;2023-02-26T15:26:07;102826.00;;;9.97;38.04
74594;BME280;63097;51.872;4.460;2023-02-26T15:28:39;102829.38;;;10.13;37.35
74594;BME280;63097;51.872;4.460;2023-02-26T15:31:08;102831.00;;;9.59;38.06
74594;BME280;63097;51.872;4.460;2023-02-26T15:33:34;102827.88;;;9.69;38.10
74594;BME280;63097;51.872;4.460;2023-02-26T15:36:00;102837.63;;;8.72;39.98
74594;BME280;63097;51.872;4.460;2023-02-26T15:38:28;102843.63;;;8.32;41.24
74594;BME280;63097;51.872;4.460;2023-02-26T15:41:03;102843.00;;;8.07;42.19
74594;BME280;63097;51.872;4.460;2023-02-26T15:43:28;102841.34;;;7.98;42.59
74594;BME280;63097;51.872;4.460;2023-02-26T15:45:55;102840.09;;;7.64;43.06
74594;BME280;63097;51.872;4.460;2023-02-26T15:48:29;102844.56;;;7.20;44.01
74594;BME280;63097;51.872;4.460;2023-02-26T15:50:59;102849.44;;;7.18;44.17